Beauraing, Belgium
Current Conditions -  °F | °C
As of 3:55 PM on Wednesday 26 Nov 2014 (Local Time) from EBFS Reporting Station
Haze Haze  
Wind Chill: 44°   Ceiling: 600
Heat Index: 46°   Visibility: 3mi
Dew Point: 45°   Wind: 6mph
Humidity: 93%   Direction: 160°SSE
Pressure: 29.85"   Gusts: NA
Location:  50.11°N, 4.96°E
Report Text: EBFS 261455Z 16005KT 5000 BR SCT004 BKN006 08/07 Q1011 YLO YLO TEMPO AMB
Loading
Personal Weather Stations






























Interactive Weather Map New forecast layout! Learn more

10-Day Weather Forecast

Advertisements
Track Severe Weather on mobile